sensor_id;sensor_type;location;lat;lon;timestamp;P1;durP1;ratioP1;P2;durP2;ratioP2
3769;SDS011;1900;48.890;9.190;2023-09-19T00:00:30;5.50;;;3.10;;
3769;SDS011;1900;48.890;9.190;2023-09-19T00:02:57;2.23;;;1.87;;
3769;SDS011;1900;48.890;9.190;2023-09-19T00:05:27;3.87;;;2.03;;
3769;SDS011;1900;48.890;9.190;2023-09-19T00:07:54;4.30;;;2.50;;
3769;SDS011;1900;48.890;9.190;2023-09-19T00:10:24;5.93;;;3.50;;
3769;SDS011;1900;48.890;9.190;2023-09-19T00:12:52;5.43;;;3.10;;
3769;SDS011;1900;48.890;9.190;2023-09-19T00:15:22;4.13;;;3.20;;
3769;SDS011;1900;48.890;9.190;2023-09-19T00:17:48;4.30;;;2.70;;
3769;SDS011;1900;48.890;9.190;2023-09-19T00:20:14;3.73;;;2.13;;
3769;SDS011;1900;48.890;9.190;2023-09-19T00:22:43;3.63;;;1.97;;
3769;SDS011;1900;48.890;9.190;2023-09-19T00:25:08;2.83;;;1.87;;
3769;SDS011;1900;48.890;9.190;2023-09-19T00:27:35;3.70;;;1.87;;
3769;SDS011;1900;48.890;9.190;2023-09-19T00:30:06;1.67;;;1.57;;
3769;SDS011;1900;48.890;9.190;2023-09-19T00:32:34;2.60;;;1.47;;
3769;SDS011;1900;48.890;9.190;2023-09-19T00:35:00;3.20;;;1.83;;
3769;SDS011;1900;48.890;9.190;2023-09-19T00:37:26;2.37;;;1.60;;
3769;SDS011;1900;48.890;9.190;2023-09-19T00:39:51;2.53;;;1.70;;
3769;SDS011;1900;48.890;9.190;2023-09-19T00:42:18;2.30;;;1.23;;
3769;SDS011;1900;48.890;9.190;2023-09-19T00:44:46;2.50;;;1.50;;
3769;SDS011;1900;48.890;9.190;2023-09-19T00:47:12;1.70;;;1.37;;
3769;SDS011;1900;48.890;9.190;2023-09-19T00:49:46;2.23;;;1.50;;
3769;SDS011;1900;48.890;9.190;2023-09-19T00:52:15;1.40;;;1.30;;
3769;SDS011;1900;48.890;9.190;2023-09-19T00:54:45;2.87;;;1.60;;
3769;SDS011;1900;48.890;9.190;2023-09-19T00:57:12;1.80;;;1.50;;
3769;SDS011;1900;48.890;9.190;2023-09-19T00:59:37;5.10;;;1.83;;
3769;SDS011;1900;48.890;9.190;2023-09-19T01:02:03;2.63;;;1.73;;
3769;SDS011;1900;48.890;9.190;2023-09-19T01:04:31;3.83;;;2.03;;
3769;SDS011;1900;48.890;9.190;2023-09-19T01:06:58;5.50;;;2.00;;
3769;SDS011;1900;48.890;9.190;2023-09-19T01:09:24;2.50;;;1.37;;
3769;SDS011;1900;48.890;9.190;2023-09-19T01:11:50;6.70;;;1.60;;
3769;SDS011;1900;48.890;9.190;2023-09-19T01:14:50;3.73;;;1.63;;
3769;SDS011;1900;48.890;9.190;2023-09-19T01:18:09;2.23;;;1.80;;
3769;SDS011;1900;48.890;9.190;2023-09-19T01:20:39;3.00;;;1.43;;
3769;SDS011;1900;48.890;9.190;2023-09-19T01:30:47;1.90;;;1.53;;
3769;SDS011;1900;48.890;9.190;2023-09-19T01:33:16;3.80;;;1.47;;
3769;SDS011;1900;48.890;9.190;2023-09-19T01:35:42;2.43;;;1.43;;
3769;SDS011;1900;48.890;9.190;2023-09-19T01:38:09;2.50;;;1.50;;
3769;SDS011;1900;48.890;9.190;2023-09-19T01:41:00;2.43;;;1.40;;
3769;SDS011;1900;48.890;9.190;2023-09-19T01:43:37;2.70;;;1.43;;
3769;SDS011;1900;48.890;9.190;2023-09-19T01:51:18;2.90;;;1.40;;
3769;SDS011;1900;48.890;9.190;2023-09-19T01:56:21;4.30;;;1.70;;
3769;SDS011;1900;48.890;9.190;2023-09-19T01:58:51;2.60;;;1.53;;
3769;SDS011;1900;48.890;9.190;2023-09-19T02:01:22;2.00;;;1.77;;
3769;SDS011;1900;48.890;9.190;2023-09-19T02:03:49;3.20;;;1.60;;
3769;SDS011;1900;48.890;9.190;2023-09-19T02:06:15;1.70;;;1.60;;
3769;SDS011;1900;48.890;9.190;2023-09-19T02:08:43;2.70;;;1.57;;
3769;SDS011;1900;48.890;9.190;2023-09-19T02:11:10;3.27;;;2.00;;
3769;SDS011;1900;48.890;9.190;2023-09-19T02:13:36;1.97;;;1.60;;
3769;SDS011;1900;48.890;9.190;2023-09-19T02:16:03;5.87;;;1.67;;
3769;SDS011;1900;48.890;9.190;2023-09-19T02:18:29;2.53;;;1.50;;
3769;SDS011;1900;48.890;9.190;2023-09-19T02:20:56;4.90;;;1.50;;
3769;SDS011;1900;48.890;9.190;2023-09-19T02:23:23;1.60;;;1.50;;
3769;SDS011;1900;48.890;9.190;2023-09-19T02:25:56;1.80;;;1.53;;
3769;SDS011;1900;48.890;9.190;2023-09-19T02:28:31;1.50;;;1.30;;
3769;SDS011;1900;48.890;9.190;2023-09-19T02:30:57;1.83;;;1.10;;
3769;SDS011;1900;48.890;9.190;2023-09-19T02:33:23;4.87;;;2.07;;
3769;SDS011;1900;48.890;9.190;2023-09-19T02:35:55;3.83;;;1.70;;
3769;SDS011;1900;48.890;9.190;2023-09-19T02:38:25;3.10;;;1.20;;
3769;SDS011;1900;48.890;9.190;2023-09-19T02:40:54;2.80;;;1.40;;
3769;SDS011;1900;48.890;9.190;2023-09-19T02:43:21;3.47;;;1.43;;
3769;SDS011;1900;48.890;9.190;2023-09-19T02:45:47;4.90;;;1.80;;
3769;SDS011;1900;48.890;9.190;2023-09-19T02:48:15;12.50;;;1.60;;
3769;SDS011;1900;48.890;9.190;2023-09-19T02:50:42;2.83;;;1.40;;
3769;SDS011;1900;48.890;9.190;2023-09-19T02:53:09;3.47;;;1.50;;
3769;SDS011;1900;48.890;9.190;2023-09-19T02:55:37;3.10;;;1.53;;
3769;SDS011;1900;48.890;9.190;2023-09-19T02:58:05;2.97;;;2.03;;
3769;SDS011;1900;48.890;9.190;2023-09-19T03:00:39;4.77;;;1.83;;
3769;SDS011;1900;48.890;9.190;2023-09-19T03:03:07;1.60;;;1.30;;
3769;SDS011;1900;48.890;9.190;2023-09-19T03:05:34;2.67;;;1.30;;
3769;SDS011;1900;48.890;9.190;2023-09-19T03:08:00;2.00;;;1.40;;
3769;SDS011;1900;48.890;9.190;2023-09-19T03:10:26;3.37;;;1.57;;
3769;SDS011;1900;48.890;9.190;2023-09-19T03:12:54;1.90;;;1.30;;
3769;SDS011;1900;48.890;9.190;2023-09-19T03:15:20;3.80;;;1.50;;
3769;SDS011;1900;48.890;9.190;2023-09-19T03:17:48;2.70;;;1.57;;
3769;SDS011;1900;48.890;9.190;2023-09-19T03:20:18;2.90;;;1.40;;
3769;SDS011;1900;48.890;9.190;2023-09-19T03:22:46;2.20;;;1.37;;
3769;SDS011;1900;48.890;9.190;2023-09-19T03:25:14;2.10;;;1.60;;
3769;SDS011;1900;48.890;9.190;2023-09-19T03:27:42;12.53;;;1.80;;
3769;SDS011;1900;48.890;9.190;2023-09-19T03:30:09;1.47;;;1.30;;
3769;SDS011;1900;48.890;9.190;2023-09-19T03:32:45;3.57;;;2.00;;
3769;SDS011;1900;48.890;9.190;2023-09-19T03:35:12;4.97;;;1.90;;
3769;SDS011;1900;48.890;9.190;2023-09-19T03:37:43;1.37;;;1.20;;
3769;SDS011;1900;48.890;9.190;2023-09-19T03:40:09;4.23;;;1.80;;
3769;SDS011;1900;48.890;9.190;2023-09-19T03:42:40;2.07;;;1.20;;
3769;SDS011;1900;48.890;9.190;2023-09-19T03:45:08;3.33;;;1.23;;
3769;SDS011;1900;48.890;9.190;2023-09-19T03:47:39;2.23;;;1.60;;
3769;SDS011;1900;48.890;9.190;2023-09-19T03:50:07;2.00;;;1.47;;
3769;SDS011;1900;48.890;9.190;2023-09-19T03:52:36;2.37;;;2.10;;
3769;SDS011;1900;48.890;9.190;2023-09-19T03:55:02;2.80;;;1.77;;
3769;SDS011;1900;48.890;9.190;2023-09-19T03:57:29;1.87;;;1.73;;
3769;SDS011;1900;48.890;9.190;2023-09-19T03:59:55;2.70;;;1.87;;
3769;SDS011;1900;48.890;9.190;2023-09-19T04:02:21;2.93;;;1.73;;
3769;SDS011;1900;48.890;9.190;2023-09-19T04:04:49;1.87;;;1.60;;
3769;SDS011;1900;48.890;9.190;2023-09-19T04:07:15;3.30;;;1.87;;
3769;SDS011;1900;48.890;9.190;2023-09-19T04:09:41;2.37;;;1.30;;
3769;SDS011;1900;48.890;9.190;2023-09-19T04:12:07;3.30;;;1.90;;
3769;SDS011;1900;48.890;9.190;2023-09-19T04:14:35;3.20;;;1.70;;
3769;SDS011;1900;48.890;9.190;2023-09-19T04:17:01;1.60;;;1.50;;
3769;SDS011;1900;48.890;9.190;2023-09-19T04:19:27;3.37;;;1.80;;
3769;SDS011;1900;48.890;9.190;2023-09-19T04:21:53;3.17;;;2.87;;
3769;SDS011;1900;48.890;9.190;2023-09-19T04:24:19;3.50;;;2.40;;
3769;SDS011;1900;48.890;9.190;2023-09-19T04:26:45;3.20;;;2.43;;
3769;SDS011;1900;48.890;9.190;2023-09-19T04:29:11;3.60;;;2.63;;
3769;SDS011;1900;48.890;9.190;2023-09-19T04:31:38;5.43;;;3.03;;
3769;SDS011;1900;48.890;9.190;2023-09-19T04:34:09;2.97;;;2.23;;
3769;SDS011;1900;48.890;9.190;2023-09-19T04:36:35;4.77;;;2.90;;
3769;SDS011;1900;48.890;9.190;2023-09-19T04:39:02;4.03;;;2.70;;
3769;SDS011;1900;48.890;9.190;2023-09-19T04:41:30;4.50;;;2.70;;
3769;SDS011;1900;48.890;9.190;2023-09-19T04:43:56;3.37;;;2.10;;
3769;SDS011;1900;48.890;9.190;2023-09-19T04:46:21;5.13;;;2.40;;
3769;SDS011;1900;48.890;9.190;2023-09-19T04:48:47;7.53;;;1.53;;
3769;SDS011;1900;48.890;9.190;2023-09-19T04:51:12;7.63;;;1.77;;
3769;SDS011;1900;48.890;9.190;2023-09-19T04:53:40;2.67;;;1.80;;
3769;SDS011;1900;48.890;9.190;2023-09-19T04:56:06;2.37;;;1.87;;
3769;SDS011;1900;48.890;9.190;2023-09-19T04:58:33;3.77;;;1.30;;
3769;SDS011;1900;48.890;9.190;2023-09-19T05:00:59;3.93;;;1.80;;
3769;SDS011;1900;48.890;9.190;2023-09-19T05:03:24;1.90;;;1.60;;
3769;SDS011;1900;48.890;9.190;2023-09-19T05:05:50;3.40;;;2.10;;
3769;SDS011;1900;48.890;9.190;2023-09-19T05:08:16;4.40;;;2.23;;
3769;SDS011;1900;48.890;9.190;2023-09-19T05:10:41;4.70;;;2.07;;
3769;SDS011;1900;48.890;9.190;2023-09-19T05:13:07;2.87;;;1.90;;
3769;SDS011;1900;48.890;9.190;2023-09-19T05:15:33;4.13;;;2.33;;
3769;SDS011;1900;48.890;9.190;2023-09-19T05:18:00;4.03;;;2.33;;
3769;SDS011;1900;48.890;9.190;2023-09-19T05:20:26;4.00;;;1.90;;
3769;SDS011;1900;48.890;9.190;2023-09-19T05:23:02;5.17;;;2.50;;
3769;SDS011;1900;48.890;9.190;2023-09-19T05:25:32;5.73;;;4.00;;
3769;SDS011;1900;48.890;9.190;2023-09-19T05:28:02;5.87;;;3.23;;
3769;SDS011;1900;48.890;9.190;2023-09-19T05:30:28;3.20;;;2.10;;
3769;SDS011;1900;48.890;9.190;2023-09-19T05:32:54;5.33;;;2.00;;
3769;SDS011;1900;48.890;9.190;2023-09-19T05:35:21;5.30;;;2.30;;
3769;SDS011;1900;48.890;9.190;2023-09-19T05:37:48;3.17;;;2.03;;
3769;SDS011;1900;48.890;9.190;2023-09-19T05:40:17;2.93;;;1.80;;
3769;SDS011;1900;48.890;9.190;2023-09-19T05:42:43;3.23;;;2.00;;
3769;SDS011;1900;48.890;9.190;2023-09-19T05:45:10;4.60;;;2.13;;
3769;SDS011;1900;48.890;9.190;2023-09-19T05:47:42;2.40;;;1.67;;
3769;SDS011;1900;48.890;9.190;2023-09-19T05:50:10;8.60;;;2.53;;
3769;SDS011;1900;48.890;9.190;2023-09-19T05:52:36;3.67;;;2.20;;
3769;SDS011;1900;48.890;9.190;2023-09-19T05:55:04;3.93;;;2.37;;
3769;SDS011;1900;48.890;9.190;2023-09-19T05:57:31;5.70;;;1.87;;
3769;SDS011;1900;48.890;9.190;2023-09-19T05:59:58;3.00;;;1.97;;
3769;SDS011;1900;48.890;9.190;2023-09-19T06:02:23;2.47;;;1.70;;
3769;SDS011;1900;48.890;9.190;2023-09-19T06:04:50;3.30;;;2.10;;
3769;SDS011;1900;48.890;9.190;2023-09-19T06:07:18;11.33;;;2.57;;
3769;SDS011;1900;48.890;9.190;2023-09-19T06:09:43;10.10;;;3.10;;
3769;SDS011;1900;48.890;9.190;2023-09-19T06:12:09;5.43;;;2.70;;
3769;SDS011;1900;48.890;9.190;2023-09-19T06:14:38;3.93;;;2.33;;
3769;SDS011;1900;48.890;9.190;2023-09-19T06:17:05;3.77;;;2.50;;
3769;SDS011;1900;48.890;9.190;2023-09-19T06:19:31;5.67;;;2.37;;
3769;SDS011;1900;48.890;9.190;2023-09-19T06:21:57;5.30;;;2.60;;
3769;SDS011;1900;48.890;9.190;2023-09-19T06:24:24;11.10;;;4.37;;
3769;SDS011;1900;48.890;9.190;2023-09-19T06:26:50;9.47;;;3.10;;
3769;SDS011;1900;48.890;9.190;2023-09-19T06:29:17;3.63;;;2.43;;
3769;SDS011;1900;48.890;9.190;2023-09-19T06:31:45;7.47;;;2.57;;
3769;SDS011;1900;48.890;9.190;2023-09-19T06:34:12;4.17;;;2.80;;
3769;SDS011;1900;48.890;9.190;2023-09-19T06:36:40;4.90;;;2.30;;
3769;SDS011;1900;48.890;9.190;2023-09-19T06:39:06;3.37;;;2.00;;
3769;SDS011;1900;48.890;9.190;2023-09-19T06:41:36;6.80;;;2.30;;
3769;SDS011;1900;48.890;9.190;2023-09-19T06:44:08;3.13;;;2.13;;
3769;SDS011;1900;48.890;9.190;2023-09-19T06:46:35;3.33;;;2.10;;
3769;SDS011;1900;48.890;9.190;2023-09-19T06:49:04;8.87;;;2.87;;
3769;SDS011;1900;48.890;9.190;2023-09-19T06:51:31;3.40;;;1.93;;
3769;SDS011;1900;48.890;9.190;2023-09-19T06:53:58;6.20;;;2.83;;
3769;SDS011;1900;48.890;9.190;2023-09-19T06:56:23;6.87;;;2.83;;
3769;SDS011;1900;48.890;9.190;2023-09-19T06:58:49;5.70;;;3.00;;
3769;SDS011;1900;48.890;9.190;2023-09-19T07:01:15;4.33;;;2.40;;
3769;SDS011;1900;48.890;9.190;2023-09-19T07:03:41;7.07;;;2.30;;
3769;SDS011;1900;48.890;9.190;2023-09-19T07:06:06;5.97;;;2.43;;
3769;SDS011;1900;48.890;9.190;2023-09-19T07:08:33;2.93;;;2.33;;
3769;SDS011;1900;48.890;9.190;2023-09-19T07:10:59;5.23;;;2.70;;
3769;SDS011;1900;48.890;9.190;2023-09-19T07:13:25;5.30;;;2.60;;
3769;SDS011;1900;48.890;9.190;2023-09-19T07:15:51;10.03;;;2.83;;
3769;SDS011;1900;48.890;9.190;2023-09-19T07:18:16;4.57;;;2.30;;
3769;SDS011;1900;48.890;9.190;2023-09-19T07:20:46;2.80;;;2.00;;
3769;SDS011;1900;48.890;9.190;2023-09-19T07:23:18;3.57;;;2.10;;
3769;SDS011;1900;48.890;9.190;2023-09-19T07:25:47;3.67;;;2.10;;
3769;SDS011;1900;48.890;9.190;2023-09-19T07:28:13;5.03;;;2.70;;
3769;SDS011;1900;48.890;9.190;2023-09-19T07:30:40;11.97;;;6.97;;
3769;SDS011;1900;48.890;9.190;2023-09-19T07:33:09;11.37;;;4.77;;
3769;SDS011;1900;48.890;9.190;2023-09-19T07:35:38;5.30;;;2.90;;
3769;SDS011;1900;48.890;9.190;2023-09-19T07:38:05;8.20;;;4.17;;
3769;SDS011;1900;48.890;9.190;2023-09-19T07:40:31;5.47;;;2.90;;
3769;SDS011;1900;48.890;9.190;2023-09-19T07:42:57;4.43;;;2.70;;
3769;SDS011;1900;48.890;9.190;2023-09-19T07:45:29;6.40;;;2.30;;
3769;SDS011;1900;48.890;9.190;2023-09-19T07:47:59;5.30;;;2.70;;
3769;SDS011;1900;48.890;9.190;2023-09-19T07:50:32;5.50;;;2.60;;
3769;SDS011;1900;48.890;9.190;2023-09-19T07:53:05;4.00;;;2.10;;
3769;SDS011;1900;48.890;9.190;2023-09-19T07:55:31;4.30;;;2.50;;
3769;SDS011;1900;48.890;9.190;2023-09-19T07:57:59;5.27;;;2.27;;
3769;SDS011;1900;48.890;9.190;2023-09-19T08:00:24;7.80;;;2.30;;
3769;SDS011;1900;48.890;9.190;2023-09-19T08:02:50;8.33;;;2.53;;
3769;SDS011;1900;48.890;9.190;2023-09-19T08:05:17;6.47;;;2.00;;
3769;SDS011;1900;48.890;9.190;2023-09-19T08:07:44;4.63;;;3.03;;
3769;SDS011;1900;48.890;9.190;2023-09-19T08:10:20;3.00;;;2.23;;
3769;SDS011;1900;48.890;9.190;2023-09-19T08:12:46;4.67;;;1.90;;
3769;SDS011;1900;48.890;9.190;2023-09-19T08:15:17;3.87;;;1.97;;
3769;SDS011;1900;48.890;9.190;2023-09-19T08:17:44;6.33;;;2.33;;
3769;SDS011;1900;48.890;9.190;2023-09-19T08:20:11;2.20;;;1.70;;
3769;SDS011;1900;48.890;9.190;2023-09-19T08:25:22;5.03;;;2.17;;
3769;SDS011;1900;48.890;9.190;2023-09-19T08:27:50;3.63;;;1.87;;
3769;SDS011;1900;48.890;9.190;2023-09-19T08:30:16;7.33;;;1.73;;
3769;SDS011;1900;48.890;9.190;2023-09-19T08:32:43;4.40;;;1.87;;
3769;SDS011;1900;48.890;9.190;2023-09-19T08:35:10;3.80;;;2.00;;
3769;SDS011;1900;48.890;9.190;2023-09-19T08:37:35;3.23;;;2.13;;
3769;SDS011;1900;48.890;9.190;2023-09-19T08:40:01;4.60;;;1.93;;
3769;SDS011;1900;48.890;9.190;2023-09-19T08:42:27;4.17;;;1.93;;
3769;SDS011;1900;48.890;9.190;2023-09-19T08:44:53;2.97;;;1.80;;
3769;SDS011;1900;48.890;9.190;2023-09-19T08:47:29;3.80;;;1.70;;
3769;SDS011;1900;48.890;9.190;2023-09-19T08:50:09;3.20;;;1.30;;
3769;SDS011;1900;48.890;9.190;2023-09-19T08:52:43;4.90;;;1.87;;
3769;SDS011;1900;48.890;9.190;2023-09-19T08:55:12;4.20;;;2.00;;
3769;SDS011;1900;48.890;9.190;2023-09-19T08:57:45;2.30;;;1.83;;
3769;SDS011;1900;48.890;9.190;2023-09-19T09:00:14;7.10;;;1.73;;
3769;SDS011;1900;48.890;9.190;2023-09-19T09:02:43;2.80;;;1.53;;
3769;SDS011;1900;48.890;9.190;2023-09-19T09:05:10;3.50;;;1.97;;
3769;SDS011;1900;48.890;9.190;2023-09-19T09:07:40;2.23;;;1.80;;
3769;SDS011;1900;48.890;9.190;2023-09-19T09:10:06;2.47;;;1.87;;
3769;SDS011;1900;48.890;9.190;2023-09-19T09:12:32;4.23;;;2.47;;
3769;SDS011;1900;48.890;9.190;2023-09-19T09:15:02;1.93;;;1.77;;
3769;SDS011;1900;48.890;9.190;2023-09-19T09:17:29;4.50;;;2.10;;
3769;SDS011;1900;48.890;9.190;2023-09-19T09:19:56;7.87;;;2.23;;
3769;SDS011;1900;48.890;9.190;2023-09-19T09:22:22;4.83;;;1.73;;
3769;SDS011;1900;48.890;9.190;2023-09-19T09:24:52;3.60;;;1.97;;
3769;SDS011;1900;48.890;9.190;2023-09-19T09:27:19;3.43;;;1.67;;
3769;SDS011;1900;48.890;9.190;2023-09-19T09:29:46;2.60;;;1.50;;
3769;SDS011;1900;48.890;9.190;2023-09-19T09:34:55;4.00;;;2.00;;
3769;SDS011;1900;48.890;9.190;2023-09-19T09:37:23;2.57;;;1.80;;
3769;SDS011;1900;48.890;9.190;2023-09-19T09:42:43;2.67;;;1.50;;
3769;SDS011;1900;48.890;9.190;2023-09-19T09:47:41;3.80;;;2.00;;
3769;SDS011;1900;48.890;9.190;2023-09-19T09:50:23;3.90;;;2.10;;
3769;SDS011;1900;48.890;9.190;2023-09-19T09:52:57;2.70;;;1.60;;
3769;SDS011;1900;48.890;9.190;2023-09-19T09:58:25;4.37;;;1.70;;
3769;SDS011;1900;48.890;9.190;2023-09-19T10:00:58;2.87;;;1.80;;
3769;SDS011;1900;48.890;9.190;2023-09-19T10:03:33;2.33;;;1.60;;
3769;SDS011;1900;48.890;9.190;2023-09-19T10:06:12;2.87;;;1.63;;
3769;SDS011;1900;48.890;9.190;2023-09-19T10:14:09;3.10;;;1.97;;
3769;SDS011;1900;48.890;9.190;2023-09-19T10:16:40;5.00;;;2.07;;
3769;SDS011;1900;48.890;9.190;2023-09-19T10:19:14;2.47;;;1.60;;
3769;SDS011;1900;48.890;9.190;2023-09-19T10:21:50;2.40;;;1.80;;
3769;SDS011;1900;48.890;9.190;2023-09-19T10:24:16;4.07;;;1.97;;
3769;SDS011;1900;48.890;9.190;2023-09-19T10:26:45;4.17;;;1.80;;
3769;SDS011;1900;48.890;9.190;2023-09-19T10:29:13;5.17;;;1.70;;
3769;SDS011;1900;48.890;9.190;2023-09-19T10:31:39;4.37;;;2.30;;
3769;SDS011;1900;48.890;9.190;2023-09-19T10:34:12;3.10;;;1.70;;
3769;SDS011;1900;48.890;9.190;2023-09-19T10:36:44;2.83;;;1.60;;
3769;SDS011;1900;48.890;9.190;2023-09-19T10:39:10;3.17;;;1.70;;
3769;SDS011;1900;48.890;9.190;2023-09-19T10:41:39;2.70;;;1.50;;
3769;SDS011;1900;48.890;9.190;2023-09-19T10:44:05;2.47;;;1.80;;
3769;SDS011;1900;48.890;9.190;2023-09-19T10:46:32;3.77;;;2.23;;
3769;SDS011;1900;48.890;9.190;2023-09-19T10:49:01;3.80;;;2.23;;
3769;SDS011;1900;48.890;9.190;2023-09-19T10:51:31;5.13;;;2.30;;
3769;SDS011;1900;48.890;9.190;2023-09-19T10:54:05;4.40;;;2.50;;
3769;SDS011;1900;48.890;9.190;2023-09-19T10:56:38;3.90;;;1.83;;
3769;SDS011;1900;48.890;9.190;2023-09-19T10:59:11;2.57;;;1.50;;
3769;SDS011;1900;48.890;9.190;2023-09-19T11:01:44;2.90;;;1.80;;
3769;SDS011;1900;48.890;9.190;2023-09-19T11:12:11;2.80;;;1.87;;
3769;SDS011;1900;48.890;9.190;2023-09-19T11:14:38;2.37;;;1.70;;
3769;SDS011;1900;48.890;9.190;2023-09-19T11:30:34;4.30;;;1.77;;
3769;SDS011;1900;48.890;9.190;2023-09-19T11:44:32;4.03;;;1.83;;
3769;SDS011;1900;48.890;9.190;2023-09-19T11:46:54;6.30;;;1.70;;
3769;SDS011;1900;48.890;9.190;2023-09-19T11:49:26;3.03;;;1.53;;
3769;SDS011;1900;48.890;9.190;2023-09-19T11:51:55;6.50;;;1.97;;
3769;SDS011;1900;48.890;9.190;2023-09-19T11:54:21;3.90;;;1.63;;
3769;SDS011;1900;48.890;9.190;2023-09-19T11:56:48;2.80;;;1.63;;
3769;SDS011;1900;48.890;9.190;2023-09-19T11:59:21;3.20;;;1.63;;
3769;SDS011;1900;48.890;9.190;2023-09-19T12:02:04;3.53;;;2.23;;
3769;SDS011;1900;48.890;9.190;2023-09-19T12:04:34;2.20;;;1.67;;
3769;SDS011;1900;48.890;9.190;2023-09-19T12:07:05;2.50;;;1.23;;
3769;SDS011;1900;48.890;9.190;2023-09-19T12:09:40;4.00;;;1.90;;
3769;SDS011;1900;48.890;9.190;2023-09-19T12:12:26;7.60;;;2.00;;
3769;SDS011;1900;48.890;9.190;2023-09-19T12:15:00;3.47;;;1.90;;
3769;SDS011;1900;48.890;9.190;2023-09-19T12:17:38;2.50;;;1.57;;
3769;SDS011;1900;48.890;9.190;2023-09-19T12:20:06;2.93;;;1.50;;
3769;SDS011;1900;48.890;9.190;2023-09-19T12:22:42;3.60;;;1.70;;
3769;SDS011;1900;48.890;9.190;2023-09-19T12:25:09;2.63;;;1.70;;
3769;SDS011;1900;48.890;9.190;2023-09-19T12:27:43;2.30;;;1.30;;
3769;SDS011;1900;48.890;9.190;2023-09-19T12:30:15;1.63;;;1.40;;
3769;SDS011;1900;48.890;9.190;2023-09-19T12:32:46;2.17;;;1.40;;
3769;SDS011;1900;48.890;9.190;2023-09-19T12:35:30;3.43;;;1.90;;
3769;SDS011;1900;48.890;9.190;2023-09-19T12:38:00;4.97;;;2.20;;
3769;SDS011;1900;48.890;9.190;2023-09-19T12:40:26;4.83;;;1.93;;
3769;SDS011;1900;48.890;9.190;2023-09-19T12:42:58;3.93;;;1.97;;
3769;SDS011;1900;48.890;9.190;2023-09-19T12:45:24;2.80;;;1.80;;
3769;SDS011;1900;48.890;9.190;2023-09-19T12:51:07;3.10;;;1.80;;
3769;SDS011;1900;48.890;9.190;2023-09-19T12:56:12;3.30;;;1.40;;
3769;SDS011;1900;48.890;9.190;2023-09-19T13:01:19;2.03;;;1.60;;
3769;SDS011;1900;48.890;9.190;2023-09-19T13:03:45;7.07;;;1.53;;
3769;SDS011;1900;48.890;9.190;2023-09-19T13:06:11;5.43;;;1.87;;
3769;SDS011;1900;48.890;9.190;2023-09-19T13:08:38;3.87;;;1.63;;
3769;SDS011;1900;48.890;9.190;2023-09-19T13:13:39;1.33;;;1.23;;
3769;SDS011;1900;48.890;9.190;2023-09-19T13:16:07;4.10;;;1.37;;
3769;SDS011;1900;48.890;9.190;2023-09-19T13:18:44;2.90;;;1.80;;
3769;SDS011;1900;48.890;9.190;2023-09-19T13:21:13;2.50;;;1.50;;
3769;SDS011;1900;48.890;9.190;2023-09-19T13:23:52;1.80;;;1.50;;
3769;SDS011;1900;48.890;9.190;2023-09-19T13:26:24;4.10;;;1.77;;
3769;SDS011;1900;48.890;9.190;2023-09-19T13:28:50;2.67;;;1.63;;
3769;SDS011;1900;48.890;9.190;2023-09-19T13:31:16;2.30;;;1.60;;
3769;SDS011;1900;48.890;9.190;2023-09-19T13:33:47;2.40;;;1.40;;
3769;SDS011;1900;48.890;9.190;2023-09-19T13:36:14;3.47;;;1.43;;
3769;SDS011;1900;48.890;9.190;2023-09-19T13:38:40;4.57;;;2.10;;
3769;SDS011;1900;48.890;9.190;2023-09-19T13:41:08;3.77;;;1.87;;
3769;SDS011;1900;48.890;9.190;2023-09-19T13:43:35;3.80;;;1.40;;
3769;SDS011;1900;48.890;9.190;2023-09-19T13:46:02;7.80;;;1.90;;
3769;SDS011;1900;48.890;9.190;2023-09-19T13:48:29;3.70;;;2.00;;
3769;SDS011;1900;48.890;9.190;2023-09-19T13:50:55;2.10;;;1.57;;
3769;SDS011;1900;48.890;9.190;2023-09-19T13:53:21;2.90;;;1.73;;
3769;SDS011;1900;48.890;9.190;2023-09-19T13:55:47;2.10;;;1.40;;
3769;SDS011;1900;48.890;9.190;2023-09-19T13:58:16;2.67;;;1.80;;
3769;SDS011;1900;48.890;9.190;2023-09-19T14:00:41;3.70;;;2.37;;
3769;SDS011;1900;48.890;9.190;2023-09-19T14:03:08;2.93;;;1.97;;
3769;SDS011;1900;48.890;9.190;2023-09-19T14:05:35;1.53;;;1.43;;
3769;SDS011;1900;48.890;9.190;2023-09-19T14:08:00;2.77;;;1.90;;
3769;SDS011;1900;48.890;9.190;2023-09-19T14:10:28;5.53;;;2.80;;
3769;SDS011;1900;48.890;9.190;2023-09-19T14:12:56;4.70;;;2.07;;
3769;SDS011;1900;48.890;9.190;2023-09-19T14:15:25;1.83;;;1.43;;
3769;SDS011;1900;48.890;9.190;2023-09-19T14:17:58;2.37;;;1.70;;
3769;SDS011;1900;48.890;9.190;2023-09-19T14:20:25;2.03;;;1.40;;
3769;SDS011;1900;48.890;9.190;2023-09-19T14:22:52;1.97;;;1.50;;
3769;SDS011;1900;48.890;9.190;2023-09-19T14:25:19;2.80;;;1.60;;
3769;SDS011;1900;48.890;9.190;2023-09-19T14:27:46;2.03;;;1.60;;
3769;SDS011;1900;48.890;9.190;2023-09-19T14:30:12;2.47;;;1.90;;
3769;SDS011;1900;48.890;9.190;2023-09-19T14:32:38;2.17;;;1.50;;
3769;SDS011;1900;48.890;9.190;2023-09-19T14:35:05;2.90;;;1.60;;
3769;SDS011;1900;48.890;9.190;2023-09-19T14:37:31;2.63;;;1.50;;
3769;SDS011;1900;48.890;9.190;2023-09-19T14:39:57;1.50;;;1.40;;
3769;SDS011;1900;48.890;9.190;2023-09-19T14:42:23;2.70;;;1.67;;
3769;SDS011;1900;48.890;9.190;2023-09-19T14:44:48;1.77;;;1.50;;
3769;SDS011;1900;48.890;9.190;2023-09-19T14:47:15;3.90;;;1.90;;
3769;SDS011;1900;48.890;9.190;2023-09-19T14:49:42;3.27;;;2.40;;
3769;SDS011;1900;48.890;9.190;2023-09-19T14:52:08;2.43;;;1.73;;
3769;SDS011;1900;48.890;9.190;2023-09-19T14:54:35;2.90;;;1.70;;
3769;SDS011;1900;48.890;9.190;2023-09-19T14:57:03;2.63;;;1.77;;
3769;SDS011;1900;48.890;9.190;2023-09-19T14:59:32;4.93;;;1.60;;
3769;SDS011;1900;48.890;9.190;2023-09-19T15:02:02;4.00;;;2.53;;
3769;SDS011;1900;48.890;9.190;2023-09-19T15:04:29;2.20;;;1.67;;
3769;SDS011;1900;48.890;9.190;2023-09-19T15:06:54;2.00;;;1.40;;
3769;SDS011;1900;48.890;9.190;2023-09-19T15:09:23;3.63;;;1.80;;
3769;SDS011;1900;48.890;9.190;2023-09-19T15:11:54;1.60;;;1.30;;
3769;SDS011;1900;48.890;9.190;2023-09-19T15:14:21;2.27;;;1.60;;
3769;SDS011;1900;48.890;9.190;2023-09-19T15:16:47;3.30;;;1.33;;
3769;SDS011;1900;48.890;9.190;2023-09-19T15:19:13;2.40;;;1.53;;
3769;SDS011;1900;48.890;9.190;2023-09-19T15:21:40;2.47;;;1.17;;
3769;SDS011;1900;48.890;9.190;2023-09-19T15:24:06;2.27;;;1.90;;
3769;SDS011;1900;48.890;9.190;2023-09-19T15:26:35;2.10;;;1.90;;
3769;SDS011;1900;48.890;9.190;2023-09-19T15:29:07;2.30;;;1.40;;
3769;SDS011;1900;48.890;9.190;2023-09-19T15:31:34;2.90;;;1.40;;
3769;SDS011;1900;48.890;9.190;2023-09-19T15:34:04;1.87;;;1.40;;
3769;SDS011;1900;48.890;9.190;2023-09-19T15:36:30;1.60;;;1.40;;
3769;SDS011;1900;48.890;9.190;2023-09-19T15:41:25;2.43;;;1.87;;
3769;SDS011;1900;48.890;9.190;2023-09-19T15:43:58;4.17;;;2.37;;
3769;SDS011;1900;48.890;9.190;2023-09-19T15:46:26;1.80;;;1.67;;
3769;SDS011;1900;48.890;9.190;2023-09-19T15:48:53;3.80;;;2.00;;
3769;SDS011;1900;48.890;9.190;2023-09-19T15:51:19;1.67;;;1.27;;
3769;SDS011;1900;48.890;9.190;2023-09-19T15:56:12;2.60;;;1.60;;
3769;SDS011;1900;48.890;9.190;2023-09-19T15:58:39;2.90;;;1.47;;
3769;SDS011;1900;48.890;9.190;2023-09-19T16:01:06;2.13;;;1.60;;
3769;SDS011;1900;48.890;9.190;2023-09-19T16:03:39;2.70;;;1.63;;
3769;SDS011;1900;48.890;9.190;2023-09-19T16:06:11;2.47;;;1.37;;
3769;SDS011;1900;48.890;9.190;2023-09-19T16:08:48;1.80;;;1.40;;
3769;SDS011;1900;48.890;9.190;2023-09-19T16:11:15;1.67;;;1.17;;
3769;SDS011;1900;48.890;9.190;2023-09-19T16:13:42;2.40;;;1.50;;
3769;SDS011;1900;48.890;9.190;2023-09-19T16:16:11;5.50;;;1.70;;
3769;SDS011;1900;48.890;9.190;2023-09-19T16:18:53;1.97;;;1.10;;
3769;SDS011;1900;48.890;9.190;2023-09-19T16:21:23;2.20;;;1.50;;
3769;SDS011;1900;48.890;9.190;2023-09-19T16:23:50;2.33;;;1.60;;
3769;SDS011;1900;48.890;9.190;2023-09-19T16:26:16;4.60;;;1.70;;
3769;SDS011;1900;48.890;9.190;2023-09-19T16:28:47;6.50;;;1.90;;
3769;SDS011;1900;48.890;9.190;2023-09-19T16:31:14;6.03;;;2.53;;
3769;SDS011;1900;48.890;9.190;2023-09-19T16:33:43;5.97;;;2.23;;
3769;SDS011;1900;48.890;9.190;2023-09-19T16:36:11;4.90;;;2.40;;
3769;SDS011;1900;48.890;9.190;2023-09-19T16:38:44;4.57;;;3.50;;
3769;SDS011;1900;48.890;9.190;2023-09-19T16:41:11;5.13;;;2.50;;
3769;SDS011;1900;48.890;9.190;2023-09-19T16:43:38;5.40;;;1.60;;
3769;SDS011;1900;48.890;9.190;2023-09-19T16:46:05;4.33;;;2.33;;